Flight Number: EUR1561 Duration: 6:00
Departure: Jeddah King Abdul Aziz (OEJN) at 00:00 Distance: 2544 Nm
Arrival: Gatwick Airport (EGKK) at 06:00 Equipment: B777

Weather Information
Jeddah King Abdul Aziz International Airport , Saudi Arabia (OEJN) 21-42N 039-11E 17M Aug 19, 2018 - 05:00 AM EDT / 2018.08.19 0900 UTC
Wind: from the WSW (240 degrees) at 7 MPH (6 KT):0
Visibility: greater than 7 mile(s):0 Temperature: 95 F (35 C) Heat index: 115.7 F (46.5 C):1 Dew Point: 80 F (27 C) Relative Humidity: 63% Pressure (altimeter): 29.59 in. Hg (1002 hPa)
ob: OEJN 190900Z 24006KT CAVOK 35/27 Q1002 NOSIG cycle: 9
Sunrise: 03:05 Sunset: 15:48 (UTC)

London / Gatwick Airport, United Kingdom (EGKK) 51-09N 000-11W 0M Aug 19, 2018 - 04:50 AM EDT / 2018.08.19 0850 UTC
Wind: from the SW (220 degrees) at 13 MPH (11 KT) (direction variable):0
Visibility: greater than 7 mile(s):0
Sky conditions: mostly cloudy Temperature: 64 F (18 C) Dew Point: 59 F (15 C) Relative Humidity: 82% Pressure (altimeter): 30.09 in. Hg (1019 hPa)
ob: EGKK 190850Z 22011KT 180V250 9999 BKN013 18/15 Q1019 cycle: 9
Sunrise: 04:58 Sunset: 19:10 (UTC)

TAF:2018/08/19 06:20 TAF EGKK 190458Z 1906/2012 22008KT 9999 BKN020 TEMPO 1906/1915 BKN010 PROB30 TEMPO 1906/1914 7000 -DZ BKN007 PROB30 TEMPO 1911/1915 22015G25KT PROB30 TEMPO 2002/2008 5000 HZ BKN006

Previous Pireps for this route
Date Aircraft Flight time Fuel used Landing rate On time
2015-04-03B757-20007.2210Charter
2016-01-26B7775.32155672-391Yes
2016-05-15B7776.091367440Charter
(pireps marked green are flown by you)

Route map